首页
METAR-TAF:

METAR-TAF

机场 :

Ottumwa Industrial Airport

Ottumwa, 艾奥瓦州, 美国

纬度: 41-06-24N, 经度: 092-26-53W, 海拔: 258米

当前天气观测

该预报发布于1小时和4分钟前的07:53 UTC
风速4节,风向东转东南
温度 22°C
湿度 94%
气压 1013 hPa
能見度: 16.1公里
多云层高于5000英尺

METAR: KOTM 190753Z AUTO 11004KT 10SM BKN050 22/21 A2992 RMK AO2 SLP126 T02220211 $

时间: 03:57 (08:57 UTC)

预报

该预报发布于3小时和37分钟前的05:20 UTC
预报有效从19日的 06点(UTC)到 20日的 06点(UTC)
风速3节,风向多变
能見度: 10公里
散云层高于5000英尺
多云层高于8000英尺
短暂存在
从 19日的 09点(UTC)到 19日的 13点(UTC)
能見度: 4.8公里
多云层高于2000英尺
轻雾
从 19日的 1800点(UTC)
风速5节,风向
能見度: 10公里
少量云层高于2000英尺
散云层高于3500英尺

TAF: KOTM 190520Z 1906/2006 VRB03KT P6SM SCT050 BKN080 TEMPO 1909/1913 3SM BR BKN020 FM191800 09005KT P6SM FEW020 SCT035

超过4000个机场的气象观测和天气预报(METAR&TAF报告)。

可查询的气象台以黄色和红色小点在地图上表示。

将鼠标移到小点上方,可查看气象台名称。

然后点击查看天气观测和预报。

如需切换地图:点击带黑十字的绿色按钮放大地图;点击带横线的绿色按钮缩小地图;或者点击绿色箭头查看邻近地区的地图。


METAR-TAF: